createdAt,value
2022-09-02T00:02:05.477Z,16.64
2022-09-02T00:04:32.065Z,16.67
2022-09-02T00:06:58.568Z,16.88
2022-09-02T00:09:25.903Z,16.71
2022-09-02T00:11:53.257Z,16.80
2022-09-02T00:14:20.883Z,16.75
2022-09-02T00:16:49.253Z,16.70
2022-09-02T00:19:15.720Z,16.69
2022-09-02T00:21:42.181Z,16.68
2022-09-02T00:24:08.666Z,16.68
2022-09-02T00:26:35.137Z,16.71
2022-09-02T00:29:01.570Z,16.79
2022-09-02T00:31:28.073Z,16.76
2022-09-02T00:33:55.955Z,16.83
2022-09-02T00:36:22.422Z,16.80
2022-09-02T00:38:48.938Z,16.83
2022-09-02T00:41:15.587Z,16.77
2022-09-02T00:43:51.189Z,16.82
2022-09-02T00:46:18.636Z,16.87
2022-09-02T00:48:47.620Z,16.81
2022-09-02T00:51:15.691Z,16.64
2022-09-02T00:53:44.678Z,16.70
2022-09-02T00:56:13.668Z,16.71
2022-09-02T00:58:41.403Z,16.85
2022-09-02T01:01:09.072Z,16.81
2022-09-02T01:03:35.560Z,16.86
2022-09-02T01:06:02.022Z,16.75
2022-09-02T01:08:31.953Z,16.76
2022-09-02T01:10:58.615Z,16.79
2022-09-02T01:13:26.926Z,16.75
2022-09-02T01:15:55.362Z,16.68
2022-09-02T01:18:24.214Z,16.69
2022-09-02T01:20:50.850Z,16.73
2022-09-02T01:23:18.972Z,16.61
2022-09-02T01:25:46.124Z,16.66
2022-09-02T01:28:13.707Z,16.67
2022-09-02T01:30:43.126Z,16.52
2022-09-02T01:33:09.557Z,16.60
2022-09-02T01:35:36.481Z,16.62
2022-09-02T01:38:03.935Z,16.73
2022-09-02T01:40:32.231Z,16.55
2022-09-02T01:43:01.207Z,16.58
2022-09-02T01:45:27.865Z,16.63
2022-09-02T01:47:54.322Z,16.57
2022-09-02T01:50:21.466Z,16.57
2022-09-02T01:52:47.968Z,16.47
2022-09-02T01:55:14.425Z,16.55
2022-09-02T01:57:42.268Z,16.52
2022-09-02T02:00:11.263Z,16.44
2022-09-02T02:02:37.727Z,16.57
2022-09-02T02:05:04.676Z,16.51
2022-09-02T02:07:31.142Z,16.54
2022-09-02T02:09:57.598Z,16.42
2022-09-02T02:12:24.117Z,16.56
2022-09-02T02:14:51.978Z,16.46
2022-09-02T02:17:21.482Z,16.46
2022-09-02T02:19:47.978Z,16.43
2022-09-02T02:22:14.426Z,16.41
2022-09-02T02:24:40.852Z,16.53
2022-09-02T02:27:07.318Z,16.44
2022-09-02T02:29:33.785Z,16.59
2022-09-02T02:32:01.725Z,16.46
2022-09-02T02:34:28.194Z,16.49
2022-09-02T02:36:54.632Z,16.54
2022-09-02T02:39:21.107Z,16.67
2022-09-02T02:41:47.600Z,16.60
2022-09-02T02:44:14.074Z,16.41
2022-09-02T02:46:40.591Z,16.58
2022-09-02T02:49:09.513Z,16.55
2022-09-02T02:51:35.992Z,16.49
2022-09-02T02:54:02.503Z,16.42
2022-09-02T02:56:29.528Z,16.36
2022-09-02T02:58:56.604Z,16.26
2022-09-02T03:01:23.108Z,16.24
2022-09-02T03:03:49.595Z,16.19
2022-09-02T03:06:17.480Z,16.25
2022-09-02T03:08:48.419Z,16.09
2022-09-02T03:11:17.603Z,16.18
2022-09-02T03:13:44.448Z,16.11
2022-09-02T03:16:11.016Z,16.11
2022-09-02T03:18:37.590Z,16.04
2022-09-02T03:21:06.837Z,16.17
2022-09-02T03:23:34.692Z,16.25
2022-09-02T03:26:01.205Z,16.09
2022-09-02T03:28:27.663Z,16.10
2022-09-02T03:30:54.134Z,16.09
2022-09-02T03:33:22.260Z,16.20
2022-09-02T03:35:48.712Z,16.20
2022-09-02T03:38:15.144Z,16.01
2022-09-02T03:40:43.107Z,16.11
2022-09-02T03:43:09.617Z,16.27
2022-09-02T03:45:36.101Z,16.20
2022-09-02T03:48:02.943Z,16.03
2022-09-02T03:50:31.409Z,16.18
2022-09-02T03:52:58.866Z,15.94
2022-09-02T03:55:25.525Z,15.97
2022-09-02T03:57:53.535Z,15.82
2022-09-02T04:00:21.769Z,15.90
2022-09-02T04:02:50.106Z,15.90
2022-09-02T04:05:17.377Z,15.95
2022-09-02T04:07:43.983Z,16.00
2022-09-02T04:10:13.908Z,16.20
2022-09-02T04:12:40.435Z,16.24
2022-09-02T04:15:09.591Z,16.09
2022-09-02T04:17:36.466Z,16.09
2022-09-02T04:20:03.887Z,16.02
2022-09-02T04:22:31.074Z,16.01
2022-09-02T04:24:57.703Z,15.94
2022-09-02T04:27:24.145Z,15.88
2022-09-02T04:29:50.619Z,15.81
2022-09-02T04:32:18.834Z,15.81
2022-09-02T04:34:45.386Z,15.70
2022-09-02T04:37:11.823Z,15.80
2022-09-02T04:39:38.297Z,15.75
2022-09-02T04:42:04.975Z,15.69
2022-09-02T04:44:31.867Z,15.63
2022-09-02T04:46:58.373Z,15.63
2022-09-02T04:49:26.204Z,15.54
2022-09-02T04:51:52.657Z,15.56
2022-09-02T04:54:19.312Z,15.53
2022-09-02T04:56:45.776Z,15.56
2022-09-02T04:59:12.216Z,15.70
2022-09-02T05:01:38.792Z,15.57
2022-09-02T05:04:06.096Z,15.52
2022-09-02T05:06:33.990Z,15.55
2022-09-02T05:09:00.495Z,15.54
2022-09-02T05:11:27.473Z,15.55
2022-09-02T05:13:54.841Z,15.58
2022-09-02T05:16:22.479Z,15.65
2022-09-02T05:18:49.620Z,15.65
2022-09-02T05:21:16.395Z,15.76
2022-09-02T05:23:44.448Z,15.83
2022-09-02T05:26:12.033Z,15.78
2022-09-02T05:28:38.794Z,15.92
2022-09-02T05:31:05.826Z,16.06
2022-09-02T05:33:32.387Z,16.16
2022-09-02T05:35:59.396Z,16.17
2022-09-02T05:38:25.913Z,16.25
2022-09-02T05:40:53.777Z,16.38
2022-09-02T05:43:20.324Z,16.27
2022-09-02T05:45:46.869Z,16.04
2022-09-02T05:48:13.336Z,15.94
2022-09-02T05:50:39.790Z,16.03
2022-09-02T05:53:07.435Z,15.94
2022-09-02T05:55:36.409Z,15.99
2022-09-02T05:58:04.250Z,16.01
2022-09-02T06:00:30.708Z,15.98
2022-09-02T06:02:57.446Z,15.95
2022-09-02T06:05:24.100Z,15.99
2022-09-02T06:07:50.575Z,16.18
2022-09-02T06:10:17.066Z,16.12
2022-09-02T06:12:43.531Z,16.14
2022-09-02T06:15:11.626Z,16.17
2022-09-02T06:17:38.160Z,16.24
2022-09-02T06:20:04.875Z,16.36
2022-09-02T06:22:31.420Z,16.36
2022-09-02T06:25:00.035Z,16.40
2022-09-02T06:27:26.622Z,16.63
2022-09-02T06:30:04.348Z,16.73
2022-09-02T06:32:39.668Z,16.85
2022-09-02T06:35:07.129Z,16.88
2022-09-02T06:37:40.391Z,17.16
2022-09-02T06:40:13.440Z,17.18
2022-09-02T06:42:41.285Z,17.47
2022-09-02T06:45:08.974Z,17.74
2022-09-02T06:47:40.047Z,17.82
2022-09-02T06:50:07.302Z,18.08
2022-09-02T06:52:54.759Z,18.21
2022-09-02T06:55:23.827Z,18.44
2022-09-02T06:57:53.108Z,18.27
2022-09-02T07:00:21.354Z,18.47
2022-09-02T07:02:50.282Z,18.62
2022-09-02T07:05:16.844Z,18.94
2022-09-02T07:07:43.576Z,18.89
2022-09-02T07:10:11.581Z,19.01
2022-09-02T07:12:39.409Z,19.07
2022-09-02T07:15:07.045Z,18.91
2022-09-02T07:17:33.627Z,18.92
2022-09-02T07:20:01.835Z,18.99
2022-09-02T07:22:28.654Z,19.29
2022-09-02T07:24:55.384Z,19.32
2022-09-02T07:27:22.189Z,19.22
2022-09-02T07:29:48.972Z,19.32
2022-09-02T07:32:16.001Z,19.22
2022-09-02T07:34:42.587Z,19.38
2022-09-02T07:37:11.065Z,19.51
2022-09-02T07:39:37.961Z,19.56
2022-09-02T07:42:04.904Z,19.69
2022-09-02T07:44:34.150Z,19.56
2022-09-02T07:47:00.682Z,19.62
2022-09-02T07:49:27.962Z,19.81
2022-09-02T07:51:54.666Z,19.80
2022-09-02T07:54:24.247Z,19.92
2022-09-02T07:56:51.084Z,19.92
2022-09-02T07:59:18.108Z,19.69
2022-09-02T08:01:44.631Z,19.74
2022-09-02T08:04:11.378Z,19.70
2022-09-02T08:06:37.950Z,20.15
2022-09-02T08:09:05.059Z,20.37
2022-09-02T08:11:33.002Z,20.25
2022-09-02T08:13:59.577Z,20.43
2022-09-02T08:16:26.118Z,20.32
2022-09-02T08:18:52.727Z,20.31
2022-09-02T08:21:19.210Z,19.93
2022-09-02T08:23:45.710Z,20.30
2022-09-02T08:26:12.316Z,20.33
2022-09-02T08:28:40.245Z,20.61
2022-09-02T08:31:07.231Z,20.89
2022-09-02T08:33:33.719Z,21.13
2022-09-02T08:36:01.976Z,21.06
2022-09-02T08:38:28.509Z,21.09
2022-09-02T08:40:54.999Z,21.20
2022-09-02T08:43:27.911Z,21.29
2022-09-02T08:45:58.108Z,21.06
2022-09-02T08:48:29.222Z,21.22
2022-09-02T08:50:59.581Z,21.59
2022-09-02T08:53:28.939Z,21.23
2022-09-02T08:55:56.998Z,21.29
2022-09-02T08:58:24.934Z,21.26
2022-09-02T09:00:55.094Z,21.13
2022-09-02T09:03:26.985Z,21.23
2022-09-02T09:05:58.989Z,21.44
2022-09-02T09:08:31.097Z,21.56
2022-09-02T09:11:00.771Z,21.83
2022-09-02T09:13:40.820Z,22.11
2022-09-02T09:16:15.005Z,22.47
2022-09-02T09:18:47.833Z,22.47
2022-09-02T09:21:16.122Z,22.53
2022-09-02T09:23:42.812Z,22.73
2022-09-02T09:26:11.003Z,22.57
2022-09-02T09:28:38.217Z,22.36
2022-09-02T09:31:05.056Z,22.35
2022-09-02T09:33:31.609Z,22.42
2022-09-02T09:35:59.488Z,22.34
2022-09-02T09:38:29.656Z,22.28
2022-09-02T09:41:10.663Z,22.21
2022-09-02T09:43:37.116Z,22.52
2022-09-02T09:46:19.715Z,22.94
2022-09-02T09:48:49.101Z,23.31
2022-09-02T09:51:17.326Z,23.14
2022-09-02T09:53:44.559Z,23.16
2022-09-02T09:56:25.185Z,22.55
2022-09-02T09:58:51.747Z,22.73
2022-09-02T10:01:19.386Z,23.09
2022-09-02T10:03:48.750Z,23.12
2022-09-02T10:06:21.018Z,23.25
2022-09-02T10:08:51.412Z,23.27
2022-09-02T10:11:21.645Z,23.54
2022-09-02T10:13:48.167Z,22.88
2022-09-02T10:16:35.444Z,23.29
2022-09-02T10:19:07.788Z,22.91
2022-09-02T10:21:56.002Z,23.09
2022-09-02T10:24:36.096Z,22.78
2022-09-02T10:27:07.158Z,22.62
2022-09-02T10:29:45.818Z,22.86
2022-09-02T10:32:36.677Z,22.90
2022-09-02T10:35:07.485Z,22.64
2022-09-02T10:37:41.598Z,23.17
2022-09-02T10:40:09.771Z,23.46
2022-09-02T10:42:44.376Z,23.49
2022-09-02T10:45:14.345Z,23.45
2022-09-02T10:47:41.043Z,22.95
2022-09-02T10:50:13.394Z,22.97
2022-09-02T10:53:01.980Z,23.15
2022-09-02T10:55:38.468Z,22.68
2022-09-02T10:58:18.598Z,22.69
2022-09-02T11:00:47.386Z,22.68
2022-09-02T11:03:21.559Z,22.87
2022-09-02T11:05:56.890Z,22.93
2022-09-02T11:08:31.493Z,22.96
2022-09-02T11:11:05.972Z,22.97
2022-09-02T11:13:37.556Z,23.21
2022-09-02T11:16:07.708Z,23.24
2022-09-02T11:18:42.265Z,23.15
2022-09-02T11:21:21.213Z,23.43
2022-09-02T11:24:00.044Z,23.66
2022-09-02T11:29:26.389Z,23.30
2022-09-02T11:31:58.033Z,23.47
2022-09-02T11:34:36.636Z,23.60
2022-09-02T11:37:17.945Z,23.64
2022-09-02T11:40:06.669Z,23.92
2022-09-02T11:42:42.505Z,23.22
2022-09-02T11:45:22.953Z,23.36
2022-09-02T11:48:12.734Z,23.42
2022-09-02T11:53:56.458Z,23.21
2022-09-02T11:56:27.388Z,23.69
2022-09-02T11:58:59.306Z,23.93
2022-09-02T12:01:27.712Z,24.14
2022-09-02T12:07:13.313Z,23.44
2022-09-02T12:12:39.169Z,23.11
2022-09-02T12:15:16.430Z,23.38
2022-09-02T12:18:08.019Z,23.49
2022-09-02T12:21:07.823Z,23.91
2022-09-02T12:23:53.152Z,23.89
2022-09-02T12:26:20.266Z,23.93
2022-09-02T12:28:48.203Z,23.56
2022-09-02T12:31:51.300Z,23.17
2022-09-02T12:34:38.661Z,23.46
2022-09-02T12:37:08.709Z,23.46
2022-09-02T12:39:51.258Z,23.55
2022-09-02T12:42:21.374Z,24.03
2022-09-02T12:44:49.081Z,24.23
2022-09-02T12:47:24.214Z,24.17
2022-09-02T12:49:53.780Z,24.21
2022-09-02T12:52:41.876Z,24.45
2022-09-02T12:55:10.406Z,24.01
2022-09-02T12:57:39.284Z,24.16
2022-09-02T13:00:06.290Z,24.04
2022-09-02T13:02:42.138Z,23.89
2022-09-02T13:05:17.032Z,23.81
2022-09-02T13:08:02.175Z,23.86
2022-09-02T13:10:46.661Z,23.87
2022-09-02T13:13:24.630Z,23.96
2022-09-02T13:16:04.967Z,24.19
2022-09-02T13:18:46.386Z,24.40
2022-09-02T13:21:23.260Z,24.51
2022-09-02T13:24:16.911Z,25.12
2022-09-02T13:27:11.052Z,25.28
2022-09-02T13:29:57.584Z,25.45
2022-09-02T13:32:25.195Z,25.07
2022-09-02T13:34:53.041Z,25.07
2022-09-02T13:37:29.468Z,25.27
2022-09-02T13:39:59.839Z,24.78
2022-09-02T13:42:33.033Z,24.45
2022-09-02T13:45:13.358Z,24.39
2022-09-02T13:47:42.439Z,24.08
2022-09-02T13:50:10.295Z,23.83
2022-09-02T13:53:34.438Z,23.72
2022-09-02T13:55:25.104Z,23.34
2022-09-02T13:57:56.957Z,23.39
2022-09-02T14:00:27.638Z,23.36
2022-09-02T14:02:58.445Z,23.21
2022-09-02T14:05:25.702Z,23.04
2022-09-02T14:07:53.551Z,22.93
2022-09-02T14:10:22.260Z,22.87
2022-09-02T14:12:49.099Z,22.80
2022-09-02T14:15:23.252Z,22.69
2022-09-02T14:18:04.562Z,22.48
2022-09-02T14:20:31.135Z,22.50
2022-09-02T14:22:58.888Z,22.54
2022-09-02T14:25:27.624Z,22.44
2022-09-02T14:27:57.771Z,22.43
2022-09-02T14:30:31.050Z,22.26
2022-09-02T14:33:16.717Z,22.33
2022-09-02T14:35:54.756Z,22.37
2022-09-02T14:38:22.720Z,22.36
2022-09-02T14:40:49.330Z,22.29
2022-09-02T14:43:16.639Z,22.15
2022-09-02T14:45:47.116Z,22.19
2022-09-02T14:48:17.622Z,22.12
2022-09-02T14:50:44.190Z,22.06
2022-09-02T14:53:12.377Z,21.98
2022-09-02T14:55:46.436Z,22.00
2022-09-02T14:58:13.025Z,21.94
2022-09-02T15:00:39.649Z,21.88
2022-09-02T15:03:07.630Z,21.87
2022-09-02T15:05:34.491Z,21.79
2022-09-02T15:08:01.060Z,21.72
2022-09-02T15:10:27.643Z,21.77
2022-09-02T15:12:55.010Z,21.75
2022-09-02T15:15:21.918Z,21.72
2022-09-02T15:17:48.612Z,21.67
2022-09-02T15:20:16.572Z,21.62
2022-09-02T15:22:44.880Z,21.64
2022-09-02T15:25:11.513Z,21.66
2022-09-02T15:27:38.140Z,21.67
2022-09-02T15:30:05.545Z,21.65
2022-09-02T15:32:33.254Z,21.66
2022-09-02T15:34:59.967Z,21.64
2022-09-02T15:37:29.189Z,21.73
2022-09-02T15:39:55.757Z,21.76
2022-09-02T15:42:22.472Z,21.78
2022-09-02T15:44:49.193Z,21.74
2022-09-02T15:47:15.825Z,21.77
2022-09-02T15:49:42.529Z,21.77
2022-09-02T15:52:19.510Z,21.83
2022-09-02T15:54:49.486Z,21.84
2022-09-02T15:57:27.041Z,21.79
2022-09-02T15:59:53.601Z,21.86
2022-09-02T16:02:26.712Z,21.91
2022-09-02T16:05:01.651Z,21.81
2022-09-02T16:07:28.473Z,21.90
2022-09-02T16:10:04.361Z,21.80
2022-09-02T16:12:36.196Z,21.77
2022-09-02T16:15:02.895Z,21.83
2022-09-02T16:17:30.004Z,21.56
2022-09-02T16:20:08.370Z,21.65
2022-09-02T16:22:35.086Z,21.72
2022-09-02T16:25:03.268Z,21.55
2022-09-02T16:27:29.786Z,21.62
2022-09-02T16:29:56.418Z,21.72
2022-09-02T16:32:26.817Z,21.69
2022-09-02T16:34:54.215Z,21.56
2022-09-02T16:37:20.906Z,21.56
2022-09-02T16:39:50.904Z,21.53
2022-09-02T16:42:29.489Z,21.51
2022-09-02T16:44:56.032Z,21.47
2022-09-02T16:47:22.506Z,21.17
2022-09-02T16:49:49.275Z,21.26
2022-09-02T16:52:32.724Z,21.32
2022-09-02T16:54:59.790Z,21.18
2022-09-02T16:57:27.922Z,21.12
2022-09-02T17:00:06.212Z,21.05
2022-09-02T17:02:36.530Z,21.06
2022-09-02T17:05:04.786Z,21.11
2022-09-02T17:07:36.351Z,21.02
2022-09-02T17:10:09.422Z,20.96
2022-09-02T17:13:54.576Z,20.77
2022-09-02T17:16:28.430Z,20.50
2022-09-02T17:18:59.881Z,20.70
2022-09-02T17:21:30.025Z,20.46
2022-09-02T17:24:02.049Z,20.39
2022-09-02T17:26:30.706Z,20.20
2022-09-02T17:29:06.999Z,20.34
2022-09-02T17:31:55.508Z,20.25
2022-09-02T17:34:25.737Z,20.10
2022-09-02T17:37:01.922Z,19.88
2022-09-02T17:39:28.933Z,19.77
2022-09-02T17:42:35.760Z,19.88
2022-09-02T17:45:36.582Z,19.86
2022-09-02T17:48:53.591Z,19.75
2022-09-02T17:51:10.531Z,19.68
2022-09-02T17:53:39.513Z,19.45
2022-09-02T17:56:20.901Z,19.50
2022-09-02T17:58:57.651Z,19.50
2022-09-02T18:01:34.383Z,19.36
2022-09-02T18:04:27.033Z,19.45
2022-09-02T18:07:00.980Z,19.23
2022-09-02T18:09:29.458Z,19.30
2022-09-02T18:12:01.607Z,19.24
2022-09-02T18:14:35.757Z,19.21
2022-09-02T18:17:08.059Z,19.19
2022-09-02T18:19:52.784Z,19.15
2022-09-02T18:22:52.006Z,19.13
2022-09-02T18:25:23.498Z,19.01
2022-09-02T18:27:52.461Z,18.96
2022-09-02T18:30:21.335Z,18.93
2022-09-02T18:33:31.591Z,18.86
2022-09-02T18:36:03.039Z,18.80
2022-09-02T18:38:36.899Z,18.77
2022-09-02T18:41:34.963Z,18.43
2022-09-02T18:44:08.934Z,18.63
2022-09-02T18:46:42.124Z,18.61
2022-09-02T18:49:12.359Z,18.47
2022-09-02T18:51:40.444Z,18.43
2022-09-02T18:54:10.905Z,18.37
2022-09-02T18:56:44.684Z,18.13
2022-09-02T18:59:12.659Z,18.13
2022-09-02T19:01:43.275Z,18.00
2022-09-02T19:04:11.458Z,17.99
2022-09-02T19:06:40.084Z,18.13
2022-09-02T19:09:09.031Z,17.63
2022-09-02T19:11:39.359Z,17.54
2022-09-02T19:14:25.560Z,17.28
2022-09-02T19:16:56.266Z,17.33
2022-09-02T19:19:52.295Z,17.28
2022-09-02T19:22:21.801Z,17.55
2022-09-02T19:24:50.582Z,17.51
2022-09-02T19:27:19.125Z,17.54
2022-09-02T19:29:54.592Z,17.51
2022-09-02T19:32:25.486Z,17.52
2022-09-02T19:34:55.114Z,17.24
2022-09-02T19:37:22.344Z,17.06
2022-09-02T19:39:49.326Z,17.01
2022-09-02T19:42:16.162Z,16.98
2022-09-02T19:44:44.661Z,16.96
2022-09-02T19:47:56.121Z,17.03
2022-09-02T19:50:03.080Z,17.12
2022-09-02T19:52:39.699Z,16.95
2022-09-02T19:55:10.019Z,16.97
2022-09-02T19:57:36.943Z,16.82
2022-09-02T20:00:04.799Z,17.26
2022-09-02T20:02:34.705Z,16.87
2022-09-02T20:05:05.394Z,16.45
2022-09-02T20:07:32.225Z,16.38
2022-09-02T20:10:02.445Z,16.68
2022-09-02T20:12:31.075Z,16.54
2022-09-02T20:14:57.688Z,16.79
2022-09-02T20:17:25.831Z,16.69
2022-09-02T20:19:55.197Z,16.49
2022-09-02T20:22:23.175Z,16.65
2022-09-02T20:24:50.103Z,16.25
2022-09-02T20:27:27.840Z,16.31
2022-09-02T20:30:05.851Z,16.30
2022-09-02T20:32:39.571Z,16.22
2022-09-02T20:35:10.030Z,16.14
2022-09-02T20:37:42.205Z,15.92
2022-09-02T20:40:18.685Z,16.01
2022-09-02T20:42:58.777Z,16.05
2022-09-02T20:45:26.755Z,16.25
2022-09-02T20:48:00.517Z,16.43
2022-09-02T20:50:37.568Z,16.29
2022-09-02T20:53:12.574Z,16.31
2022-09-02T20:55:43.022Z,16.40
2022-09-02T20:58:14.716Z,16.20
2022-09-02T21:00:44.580Z,16.01
2022-09-02T21:03:11.879Z,16.15
2022-09-02T21:05:40.875Z,16.21
2022-09-02T21:08:12.850Z,16.07
2022-09-02T21:10:42.511Z,16.05
2022-09-02T21:13:13.091Z,16.12
2022-09-02T21:15:43.044Z,15.98
2022-09-02T21:18:16.960Z,16.03
2022-09-02T21:20:47.456Z,16.01
2022-09-02T21:23:18.149Z,16.07
2022-09-02T21:25:50.310Z,16.11
2022-09-02T21:28:25.439Z,15.97
2022-09-02T21:30:55.332Z,16.01
2022-09-02T21:33:25.968Z,16.00
2022-09-02T21:35:53.461Z,16.07
2022-09-02T21:38:32.943Z,15.85
2022-09-02T21:41:14.495Z,15.76
2022-09-02T21:43:47.601Z,15.50
2022-09-02T21:46:20.155Z,15.62
2022-09-02T21:48:54.494Z,15.77
2022-09-02T21:51:24.464Z,15.70
2022-09-02T21:53:58.396Z,15.47
2022-09-02T21:56:30.531Z,15.50
2022-09-02T21:59:07.680Z,15.53
2022-09-02T22:01:43.552Z,15.47
2022-09-02T22:04:15.911Z,15.30
2022-09-02T22:06:47.088Z,15.23
2022-09-02T22:09:17.307Z,15.33
2022-09-02T22:11:46.601Z,15.33
2022-09-02T22:14:21.074Z,15.46
2022-09-02T22:16:55.219Z,15.20
2022-09-02T22:19:24.620Z,15.38
2022-09-02T22:21:52.252Z,15.38
2022-09-02T22:24:21.965Z,15.47
2022-09-02T22:26:53.054Z,15.27
2022-09-02T22:29:22.913Z,15.36
2022-09-02T22:31:50.008Z,15.25
2022-09-02T22:34:16.660Z,15.27
2022-09-02T22:36:52.128Z,15.26
2022-09-02T22:39:20.674Z,15.25
2022-09-02T22:41:51.471Z,15.29
2022-09-02T22:44:22.365Z,15.43
2022-09-02T22:46:54.795Z,15.16
2022-09-02T22:49:22.076Z,15.39
2022-09-02T22:51:50.883Z,15.25
2022-09-02T22:54:17.413Z,15.31
2022-09-02T22:56:50.629Z,15.21
2022-09-02T22:59:25.230Z,15.26
2022-09-02T23:02:01.804Z,15.08
2022-09-02T23:04:33.912Z,15.09
2022-09-02T23:07:00.961Z,15.03
2022-09-02T23:09:27.772Z,15.05
2022-09-02T23:11:59.566Z,15.03
2022-09-02T23:14:31.844Z,15.06
2022-09-02T23:17:08.574Z,14.92
2022-09-02T23:19:43.614Z,14.99
2022-09-02T23:22:11.965Z,15.17
2022-09-02T23:24:45.444Z,14.99
2022-09-02T23:27:19.169Z,15.03
2022-09-02T23:29:45.785Z,15.07
2022-09-02T23:32:25.568Z,14.92
2022-09-02T23:35:02.149Z,15.04
2022-09-02T23:37:34.196Z,14.96
2022-09-02T23:40:06.899Z,14.89
2022-09-02T23:42:35.146Z,14.69
2022-09-02T23:45:06.627Z,14.68
2022-09-02T23:47:39.443Z,14.65
2022-09-02T23:50:12.564Z,14.81
2022-09-02T23:52:43.340Z,14.76
2022-09-02T23:55:22.551Z,14.93
2022-09-02T23:58:03.419Z,14.86
